Time;durP1;ratioP1;P1;durP2;ratioP2;P2;SDS_P1;SDS_P2;PMS_P1;PMS_P2;Temp;Humidity;BMP_temperature;BMP_pressure;BME280_temperature;BME280_humidity;BME280_pressure;Samples;Min_cycle;Max_cycle;Signal;HPM_P1;HPM_P2
2023/08/03 00:01:08;;;;;;;3.85;2.10;;;17.70;99.90;;;;;;5186361;28;20041;-69
2023/08/03 00:03:40;;;;;;;3.63;2.00;;;17.60;99.90;;;;;;5207511;28;20428;-67
2023/08/03 00:06:14;;;;;;;3.25;2.00;;;17.50;99.90;;;;;;5213557;28;20032;-68
2023/08/03 00:08:46;;;;;;;;;;;17.50;99.90;;;;;;5241148;28;20048;-67
2023/08/03 00:11:17;;;;;;;2.30;2.03;;;17.50;99.90;;;;;;5235945;28;20353;-68
2023/08/03 00:13:52;;;;;;;2.60;2.20;;;17.50;99.90;;;;;;5221374;28;20032;-68
2023/08/03 00:16:28;;;;;;;2.17;1.98;;;17.50;99.90;;;;;;5200784;28;20036;-68
2023/08/03 00:19:00;;;;;;;2.47;2.00;;;17.40;99.90;;;;;;5206736;28;20288;-67
2023/08/03 00:21:36;;;;;;;2.20;1.98;;;17.40;99.90;;;;;;5219711;28;20052;-70
2023/08/03 00:24:08;;;;;;;2.50;2.30;;;17.40;99.90;;;;;;5240380;28;20044;-67
2023/08/03 00:26:41;;;;;;;3.85;2.03;;;17.40;99.90;;;;;;5239219;28;20035;-68
2023/08/03 00:29:14;;;;;;;3.00;2.15;;;17.40;99.90;;;;;;5239546;28;20071;-67
2023/08/03 00:31:48;;;;;;;2.65;2.28;;;17.40;99.90;;;;;;5211602;28;20048;-68
2023/08/03 00:34:22;;;;;;;2.95;2.05;;;17.40;99.90;;;;;;5189360;28;20055;-67
2023/08/03 00:36:56;;;;;;;2.47;2.28;;;17.40;99.90;;;;;;5169698;28;20070;-66
2023/08/03 00:39:31;;;;;;;2.63;2.05;;;17.50;99.90;;;;;;5239091;28;20063;-66
2023/08/03 00:42:06;;;;;;;1.95;1.85;;;17.50;99.90;;;;;;5213429;28;20044;-68
2023/08/03 00:44:41;;;;;;;4.60;1.98;;;17.50;99.90;;;;;;5218054;28;20047;-68
2023/08/03 00:47:13;;;;;;;3.20;2.10;;;17.50;99.90;;;;;;5187037;28;20208;-67
2023/08/03 00:49:44;;;;;;;2.75;2.10;;;17.50;99.90;;;;;;5238449;28;20349;-68
2023/08/03 00:52:23;;;;;;;2.20;2.00;;;17.50;99.90;;;;;;5199537;28;20051;-65
2023/08/03 00:55:01;;;;;;;2.38;1.90;;;17.60;99.90;;;;;;5237759;28;20052;-67
2023/08/03 00:57:35;;;;;;;2.22;2.03;;;17.70;99.90;;;;;;5216670;28;20040;-66
2023/08/03 01:03:05;;;;;;;3.92;2.20;;;17.60;99.90;;;;;;5186039;22;20528;-66
2023/08/03 01:05:37;;;;;;;3.20;2.55;;;17.50;99.90;;;;;;5081700;28;20043;-67
2023/08/03 01:08:08;;;;;;;2.47;2.10;;;17.50;99.90;;;;;;5060789;28;20055;-67
2023/08/03 01:10:42;;;;;;;2.28;2.08;;;17.50;99.90;;;;;;5048753;29;20054;-67
2023/08/03 01:13:15;;;;;;;3.63;2.25;;;17.40;99.90;;;;;;5077495;28;20048;-68
2023/08/03 01:15:50;;;;;;;2.17;1.90;;;17.40;99.90;;;;;;5059819;29;20047;-67
2023/08/03 01:18:21;;;;;;;2.45;1.83;;;17.40;99.90;;;;;;5066224;29;20031;-67
2023/08/03 01:20:58;;;;;;;2.83;2.25;;;17.40;99.90;;;;;;5097625;28;20050;-66
2023/08/03 01:23:30;;;;;;;3.03;2.53;;;17.40;99.90;;;;;;5080440;29;20579;-67
2023/08/03 01:26:02;;;;;;;3.22;2.20;;;17.40;99.90;;;;;;5079655;28;20051;-68
2023/08/03 01:28:38;;;;;;;3.58;2.30;;;17.40;99.90;;;;;;5075182;29;20062;-64
2023/08/03 01:31:11;;;;;;;2.63;1.80;;;17.50;99.90;;;;;;5130920;28;20048;-67
2023/08/03 01:33:46;;;;;;;2.13;1.92;;;17.60;99.90;;;;;;5047185;28;20044;-67
2023/08/03 01:36:17;;;;;;;2.95;2.10;;;17.70;99.90;;;;;;5060546;28;20044;-68
2023/08/03 01:39:06;;;;;;;2.35;2.15;;;17.70;99.90;;;;;;5075612;29;20042;-66
2023/08/03 01:41:42;;;;;;;2.40;1.98;;;17.70;99.90;;;;;;5046644;28;20050;-65
2023/08/03 01:44:32;;;;;;;2.83;2.10;;;17.80;99.90;;;;;;5063852;28;20047;-69
2023/08/03 01:47:05;;;;;;;2.42;2.10;;;17.80;99.90;;;;;;5076052;29;20047;-68
2023/08/03 01:49:39;;;;;;;2.03;1.67;;;17.80;99.90;;;;;;5080088;28;20044;-66
2023/08/03 01:52:16;;;;;;;2.65;1.85;;;17.90;99.90;;;;;;5077635;28;20054;-68
2023/08/03 01:54:50;;;;;;;2.22;2.03;;;18.10;99.90;;;;;;5077487;28;20043;-65
2023/08/03 01:57:24;;;;;;;2.30;2.10;;;18.20;99.90;;;;;;5045045;28;20481;-67
2023/08/03 01:59:58;;;;;;;2.90;2.40;;;18.20;99.90;;;;;;5052912;28;20427;-67
2023/08/03 02:02:35;;;;;;;2.30;2.10;;;18.20;99.90;;;;;;5099403;28;20057;-65
2023/08/03 02:05:22;;;;;;;2.13;1.88;;;18.20;99.90;;;;;;5072653;28;20557;-66
2023/08/03 02:07:55;;;;;;;2.75;2.20;;;18.40;99.90;;;;;;5092878;29;20044;-66
2023/08/03 02:10:26;;;;;;;2.15;1.83;;;18.40;99.90;;;;;;5087009;28;20059;-67
2023/08/03 02:12:58;;;;;;;2.35;2.15;;;18.50;99.90;;;;;;5114360;28;20035;-67
2023/08/03 02:15:38;;;;;;;2.47;2.28;;;18.60;99.90;;;;;;5095166;28;20043;-67
2023/08/03 02:18:11;;;;;;;3.25;1.70;;;18.50;99.90;;;;;;5099670;28;20047;-66
2023/08/03 02:20:42;;;;;;;1.90;1.80;;;18.50;99.90;;;;;;5077697;29;20064;-69
2023/08/03 02:23:18;;;;;;;1.90;1.80;;;18.50;99.90;;;;;;5161198;28;20042;-68
2023/08/03 02:25:56;;;;;;;2.42;2.08;;;18.50;99.90;;;;;;5063659;28;20078;-66
2023/08/03 02:28:31;;;;;;;2.17;1.95;;;18.50;99.90;;;;;;5118609;28;20049;-68
2023/08/03 02:31:03;;;;;;;4.20;2.10;;;18.50;99.90;;;;;;5090008;29;20081;-68
2023/08/03 02:33:40;;;;;;;2.67;1.85;;;18.50;99.90;;;;;;5095022;29;20038;-67
2023/08/03 02:36:15;;;;;;;5.07;1.85;;;18.50;99.90;;;;;;5078157;29;20054;-65
2023/08/03 02:38:49;;;;;;;;;;;18.60;99.90;;;;;;5078608;29;20287;-67
2023/08/03 02:41:23;;;;;;;1.98;1.60;;;18.70;99.90;;;;;;5073862;28;19929;-68
2023/08/03 02:43:55;;;;;;;2.95;1.38;;;18.80;99.90;;;;;;5097971;29;20396;-66
2023/08/03 02:46:35;;;;;;;3.00;1.60;;;18.80;99.90;;;;;;5096299;28;20057;-68
2023/08/03 02:49:11;;;;;;;3.55;1.50;;;19.00;99.90;;;;;;5098990;29;20400;-67
2023/08/03 02:51:49;;;;;;;2.08;1.77;;;19.10;99.90;;;;;;5121608;28;20050;-64
2023/08/03 02:54:28;;;;;;;2.38;1.80;;;19.10;99.90;;;;;;5130556;28;20338;-68
2023/08/03 02:56:59;;;;;;;1.70;1.50;;;19.00;99.90;;;;;;5162803;28;20063;-67
2023/08/03 02:59:33;;;;;;;1.98;1.50;;;18.90;99.90;;;;;;5095394;29;20438;-66
2023/08/03 03:02:05;;;;;;;2.60;1.88;;;18.90;99.90;;;;;;5111495;28;20527;-68
2023/08/03 03:04:41;;;;;;;11.98;2.20;;;18.80;99.90;;;;;;5082497;29;20043;-67
2023/08/03 03:07:13;;;;;;;2.00;1.80;;;18.80;99.90;;;;;;5084729;29;20327;-66
2023/08/03 03:09:49;;;;;;;1.55;1.45;;;18.80;99.90;;;;;;5097125;28;20061;-66
2023/08/03 03:12:26;;;;;;;1.80;1.70;;;18.80;99.90;;;;;;5099531;29;20359;-67
2023/08/03 03:14:59;;;;;;;2.00;1.80;;;18.90;99.90;;;;;;5118824;29;20038;-67
2023/08/03 03:17:38;;;;;;;2.13;1.92;;;18.90;99.90;;;;;;5083287;29;20054;-68
2023/08/03 03:20:13;;;;;;;2.50;2.10;;;18.90;99.90;;;;;;5105943;28;20038;-69
2023/08/03 03:22:47;;;;;;;5.15;2.08;;;19.10;99.90;;;;;;5094971;29;20063;-65
2023/08/03 03:25:18;;;;;;;2.28;1.85;;;19.30;99.90;;;;;;5050768;29;20046;-67
2023/08/03 03:27:50;;;;;;;1.77;1.63;;;19.40;66.50;;;;;;5091130;28;20036;-66
2023/08/03 03:30:28;;;;;;;2.38;2.15;;;19.50;26.20;;;;;;5101301;28;20074;-67
2023/08/03 03:33:06;;;;;;;1.95;1.75;;;19.60;1.00;;;;;;5101499;29;20316;-68
2023/08/03 03:35:37;;;;;;;3.53;1.92;;;19.60;6.50;;;;;;5086733;28;20042;-67
2023/08/03 03:38:11;;;;;;;2.40;1.98;;;19.60;1.00;;;;;;5085673;28;20051;-65
2023/08/03 03:40:45;;;;;;;2.15;1.75;;;19.70;1.00;;;;;;5096077;28;20274;-69
2023/08/03 03:43:17;;;;;;;2.38;2.17;;;19.70;1.00;;;;;;5067687;29;20044;-67
2023/08/03 03:45:48;;;;;;;2.33;1.70;;;19.80;1.00;;;;;;5079834;28;20050;-68
2023/08/03 03:48:23;;;;;;;2.15;1.80;;;19.90;1.00;;;;;;5118439;28;20051;-68
2023/08/03 03:50:59;;;;;;;2.78;1.58;;;19.90;1.00;;;;;;5100304;28;20039;-68
2023/08/03 03:53:39;;;;;;;1.77;1.45;;;19.90;1.00;;;;;;5116986;29;20050;-66
2023/08/03 03:56:12;;;;;;;2.20;1.48;;;20.00;1.00;;;;;;5084475;29;20086;-67
2023/08/03 03:58:49;;;;;;;2.47;1.83;;;20.00;1.00;;;;;;5093779;28;20061;-69
2023/08/03 04:01:23;;;;;;;3.17;2.17;;;20.00;1.00;;;;;;5073404;29;20047;-67
2023/08/03 04:03:57;;;;;;;2.00;1.80;;;20.00;1.00;;;;;;5101704;28;20050;-68
2023/08/03 04:06:33;;;;;;;3.55;2.20;;;20.00;1.00;;;;;;5100746;29;20050;-65
2023/08/03 04:09:09;;;;;;;2.92;1.67;;;20.00;1.00;;;;;;5099495;28;20043;-67
2023/08/03 04:11:43;;;;;;;4.07;1.77;;;20.00;1.00;;;;;;5079241;29;20052;-67
2023/08/03 04:14:15;;;;;;;3.72;1.83;;;20.20;1.00;;;;;;5078135;28;20045;-69
2023/08/03 04:16:50;;;;;;;2.08;1.23;;;20.30;99.90;;;;;;5081480;29;20036;-65
2023/08/03 04:19:27;;;;;;;1.60;1.50;;;20.40;1.00;;;;;;5088706;28;20047;-68
2023/08/03 04:22:03;;;;;;;1.50;1.00;;;20.50;99.90;;;;;;5071787;28;20062;-66
2023/08/03 04:24:35;;;;;;;1.17;1.08;;;20.60;1.00;;;;;;5069881;29;20370;-65
2023/08/03 04:27:07;;;;;;;1.42;1.10;;;20.60;1.00;;;;;;5163543;28;20069;-69
2023/08/03 04:29:41;;;;;;;1.85;1.20;;;20.70;1.00;;;;;;5098214;28;20047;-67
2023/08/03 04:32:16;;;;;;;1.35;1.20;;;20.80;99.90;;;;;;5093603;29;20055;-69
2023/08/03 04:34:47;;;;;;;2.03;1.10;;;20.80;57.10;;;;;;5100834;29;20039;-65
2023/08/03 04:37:23;;;;;;;1.17;0.88;;;20.80;1.00;;;;;;5118036;29;20058;-69
2023/08/03 04:39:54;;;;;;;1.15;1.00;;;20.90;1.00;;;;;;5100682;28;20529;-67
2023/08/03 04:42:26;;;;;;;1.38;1.00;;;20.80;1.00;;;;;;5099374;28;20039;-67
2023/08/03 04:45:01;;;;;;;1.73;1.13;;;20.80;1.00;;;;;;5084104;29;20039;-70
2023/08/03 04:47:41;;;;;;;3.38;1.20;;;20.80;1.00;;;;;;5081666;29;20057;-66
2023/08/03 04:50:14;;;;;;;1.48;1.20;;;20.80;1.00;;;;;;5080810;29;20397;-68
2023/08/03 04:52:48;;;;;;;0.90;0.90;;;20.80;1.00;;;;;;5113393;29;20034;-69
2023/08/03 04:55:20;;;;;;;1.17;1.00;;;20.80;1.00;;;;;;5098159;29;20391;-67
2023/08/03 04:57:51;;;;;;;1.15;0.77;;;20.90;1.00;;;;;;5094220;29;20040;-67
2023/08/03 05:00:29;;;;;;;1.45;1.05;;;20.90;1.00;;;;;;5095965;29;20594;-67
2023/08/03 05:03:01;;;;;;;1.75;0.82;;;20.90;1.00;;;;;;5086195;28;20039;-67
2023/08/03 05:05:34;;;;;;;2.28;0.93;;;20.90;1.00;;;;;;5095094;28;20039;-68
2023/08/03 05:08:06;;;;;;;0.87;0.83;;;20.90;1.00;;;;;;5096051;28;20036;-68
2023/08/03 05:10:37;;;;;;;2.25;1.02;;;21.00;1.00;;;;;;5079040;29;20051;-68
2023/08/03 05:13:09;;;;;;;1.70;1.20;;;21.10;1.00;;;;;;5073822;28;20395;-67
2023/08/03 05:15:46;;;;;;;1.38;1.10;;;21.10;1.00;;;;;;5095720;28;20035;-68
2023/08/03 05:18:17;;;;;;;1.38;0.88;;;21.10;1.00;;;;;;5099308;29;20055;-67
2023/08/03 05:20:52;;;;;;;0.90;0.90;;;21.20;1.00;;;;;;5085329;28;20097;-67
2023/08/03 05:23:24;;;;;;;4.30;1.10;;;21.30;1.00;;;;;;5099510;28;20039;-66
2023/08/03 05:25:57;;;;;;;1.15;1.05;;;21.30;1.00;;;;;;5098528;29;20023;-67
2023/08/03 05:28:32;;;;;;;1.02;0.95;;;21.40;1.00;;;;;;5083192;29;20079;-68
2023/08/03 05:31:07;;;;;;;0.80;0.80;;;21.40;1.00;;;;;;5080613;29;20609;-67
2023/08/03 05:33:39;;;;;;;1.95;1.15;;;21.40;1.00;;;;;;5067146;28;20047;-66
2023/08/03 05:36:13;;;;;;;1.10;1.00;;;21.40;1.00;;;;;;5095852;29;20032;-67
2023/08/03 05:38:45;;;;;;;4.78;1.23;;;21.50;1.00;;;;;;5085994;28;20047;-70
2023/08/03 05:41:22;;;;;;;1.50;1.38;;;21.50;1.00;;;;;;5113954;29;20582;-67
2023/08/03 05:43:54;;;;;;;3.03;1.25;;;21.50;99.90;;;;;;5102914;29;20042;-65
2023/08/03 05:46:37;;;;;;;1.45;0.57;;;21.70;99.90;;;;;;5162830;28;20051;-67
2023/08/03 05:49:12;;;;;;;2.30;1.35;;;21.80;1.00;;;;;;5070877;28;20043;-69
2023/08/03 05:51:44;;;;;;;1.02;0.95;;;22.00;1.00;;;;;;5082999;29;20051;-70
2023/08/03 05:54:21;;;;;;;0.93;0.90;;;22.30;99.90;;;;;;5097553;29;20046;-67
2023/08/03 05:56:53;;;;;;;1.88;1.00;;;22.40;99.90;;;;;;5050377;29;20042;-69
2023/08/03 05:59:24;;;;;;;4.32;1.17;;;22.60;99.90;;;;;;5097692;29;20140;-66
2023/08/03 06:01:56;;;;;;;2.45;1.25;;;22.70;99.90;;;;;;5085848;29;20043;-67
2023/08/03 06:04:31;;;;;;;1.25;0.95;;;22.70;99.90;;;;;;5092023;29;20043;-68
2023/08/03 06:07:05;;;;;;;1.33;0.98;;;22.60;99.90;;;;;;5077592;29;20059;-68
2023/08/03 06:09:36;;;;;;;;;;;22.40;99.90;;;;;;5078326;29;20043;-68
2023/08/03 06:12:18;;;;;;;2.47;1.00;;;22.20;99.90;;;;;;5082094;28;19923;-66
2023/08/03 06:14:55;;;;;;;2.35;0.95;;;22.10;99.90;;;;;;5098059;29;20051;-68
2023/08/03 06:17:32;;;;;;;1.25;1.15;;;22.00;99.90;;;;;;5078540;29;20050;-67
2023/08/03 06:20:14;;;;;;;1.58;1.30;;;22.00;99.90;;;;;;5097704;28;20043;-67
2023/08/03 06:22:46;;;;;;;1.58;0.85;;;21.90;95.80;;;;;;5057314;28;20051;-71
2023/08/03 06:25:18;;;;;;;3.08;1.27;;;21.80;46.90;;;;;;5067787;28;20058;-69
2023/08/03 06:27:50;;;;;;;0.90;0.90;;;21.70;99.90;;;;;;5078338;29;20224;-68
2023/08/03 06:30:27;;;;;;;1.73;1.25;;;21.70;99.90;;;;;;5104498;28;20051;-67
2023/08/03 06:33:03;;;;;;;1.40;1.25;;;21.70;1.00;;;;;;5080206;28;20051;-68
2023/08/03 06:35:44;;;;;;;1.00;0.90;;;21.60;1.00;;;;;;5073485;28;20134;-68
2023/08/03 06:38:22;;;;;;;1.63;0.80;;;21.70;1.00;;;;;;5107657;29;20531;-65
2023/08/03 06:40:54;;;;;;;1.33;0.95;;;21.60;1.00;;;;;;5138105;28;20051;-67
2023/08/03 06:43:38;;;;;;;2.70;1.50;;;21.70;1.00;;;;;;5082991;28;20039;-69
2023/08/03 06:46:14;;;;;;;3.80;1.10;;;21.70;1.00;;;;;;5094355;29;20040;-68
2023/08/03 06:48:46;;;;;;;2.30;1.20;;;21.70;1.00;;;;;;5083224;29;20054;-69
2023/08/03 06:51:22;;;;;;;1.55;0.80;;;21.70;1.00;;;;;;5100192;29;20039;-69
2023/08/03 06:53:57;;;;;;;1.50;1.27;;;21.60;17.90;;;;;;5101189;29;20047;-68
2023/08/03 06:56:28;;;;;;;2.60;0.95;;;21.60;1.00;;;;;;5100881;29;20043;-67
2023/08/03 06:59:00;;;;;;;2.15;1.13;;;21.60;1.00;;;;;;5114114;29;20020;-66
2023/08/03 07:01:31;;;;;;;2.83;1.05;;;21.50;1.00;;;;;;5098246;29;20039;-67
2023/08/03 07:04:05;;;;;;;1.48;1.23;;;21.40;1.00;;;;;;5117836;28;20037;-68
2023/08/03 07:06:41;;;;;;;1.00;0.90;;;21.50;1.00;;;;;;5084998;29;20051;-65
2023/08/03 07:09:13;;;;;;;1.27;1.15;;;21.50;1.00;;;;;;5070573;28;20044;-67
2023/08/03 07:11:47;;;;;;;1.65;1.00;;;21.40;1.00;;;;;;5084504;28;20059;-65
2023/08/03 07:14:19;;;;;;;2.25;1.10;;;21.40;1.00;;;;;;5165531;28;20550;-68
2023/08/03 07:16:53;;;;;;;11.82;1.20;;;21.50;1.00;;;;;;5098091;29;20043;-68
2023/08/03 07:19:24;;;;;;;1.80;1.23;;;21.50;68.60;;;;;;5098897;29;20232;-67
2023/08/03 07:21:56;;;;;;;1.15;1.00;;;21.50;1.00;;;;;;5118910;28;20435;-70
2023/08/03 07:24:32;;;;;;;1.95;1.17;;;21.50;1.00;;;;;;5112999;29;20040;-66
2023/08/03 07:27:06;;;;;;;1.20;1.13;;;21.50;1.00;;;;;;5117300;29;20385;-65
2023/08/03 07:29:38;;;;;;;1.67;1.13;;;21.40;1.00;;;;;;5082960;28;20051;-67
2023/08/03 07:32:13;;;;;;;1.50;0.77;;;21.40;1.00;;;;;;5110801;28;20349;-67
2023/08/03 07:34:47;;;;;;;1.35;0.90;;;21.50;1.00;;;;;;5084253;28;20109;-68
2023/08/03 07:37:19;;;;;;;2.25;0.93;;;21.30;99.90;;;;;;5117586;29;20031;-66
2023/08/03 07:39:54;;;;;;;4.60;1.20;;;21.10;1.00;;;;;;5108321;28;20043;-69
2023/08/03 07:42:26;;;;;;;3.15;1.20;;;21.00;1.00;;;;;;5084983;28;20043;-67
2023/08/03 07:44:58;;;;;;;1.98;1.00;;;21.10;1.00;;;;;;5115691;29;20047;-65
2023/08/03 07:47:35;;;;;;;2.17;1.10;;;21.20;1.00;;;;;;5093182;28;20399;-68
2023/08/03 07:50:10;;;;;;;1.80;1.08;;;21.30;1.00;;;;;;5112005;29;20035;-68
2023/08/03 07:52:42;;;;;;;3.78;1.30;;;21.40;1.00;;;;;;5115766;28;20028;-68
2023/08/03 07:55:16;;;;;;;2.58;1.10;;;21.60;1.00;;;;;;5116201;29;20035;-68
2023/08/03 07:57:47;;;;;;;0.93;0.80;;;21.60;1.00;;;;;;5089155;28;20340;-66
2023/08/03 08:00:22;;;;;;;1.95;1.38;;;21.70;1.00;;;;;;5109299;29;20233;-67
2023/08/03 08:02:58;;;;;;;1.00;0.90;;;21.90;1.00;;;;;;5070385;28;20059;-68
2023/08/03 08:05:30;;;;;;;1.55;1.00;;;22.00;1.00;;;;;;5102409;28;20059;-66
2023/08/03 08:08:01;;;;;;;1.13;0.98;;;22.10;99.90;;;;;;5096988;29;20046;-69
2023/08/03 08:10:34;;;;;;;4.35;1.23;;;22.10;99.90;;;;;;5089108;29;20056;-66
2023/08/03 08:13:11;;;;;;;2.08;1.42;;;22.10;99.90;;;;;;5098495;29;20035;-68
2023/08/03 08:15:43;;;;;;;2.88;0.93;;;22.00;99.90;;;;;;5096369;29;20046;-65
2023/08/03 08:18:17;;;;;;;1.85;1.13;;;21.90;99.90;;;;;;5084541;28;20054;-68
2023/08/03 08:21:01;;;;;;;1.02;0.93;;;21.90;99.90;;;;;;5084196;28;20042;-68
2023/08/03 08:23:36;;;;;;;0.93;0.93;;;21.80;99.90;;;;;;5073427;28;20039;-68
2023/08/03 08:26:18;;;;;;;1.85;1.02;;;21.80;99.90;;;;;;5086107;29;20036;-68
2023/08/03 08:28:52;;;;;;;1.48;1.10;;;21.70;99.90;;;;;;5160038;28;20050;-67
2023/08/03 08:31:27;;;;;;;1.75;1.10;;;21.70;99.90;;;;;;5058184;28;20059;-66
2023/08/03 08:34:01;;;;;;;1.25;1.00;;;21.70;99.90;;;;;;5078915;29;20047;-68
2023/08/03 08:36:36;;;;;;;1.35;0.93;;;21.40;99.90;;;;;;5063090;29;20048;-69
2023/08/03 08:39:11;;;;;;;0.82;0.77;;;21.10;99.90;;;;;;5086555;29;20119;-66
2023/08/03 08:41:44;;;;;;;1.85;1.17;;;21.00;99.90;;;;;;5091889;29;20050;-65
2023/08/03 08:44:18;;;;;;;1.00;1.00;;;20.80;1.00;;;;;;5079256;29;20389;-67
2023/08/03 08:46:50;;;;;;;1.30;0.90;;;20.70;99.90;;;;;;5089653;28;20031;-66
2023/08/03 08:49:27;;;;;;;1.00;0.80;;;20.80;99.90;;;;;;5093640;28;20078;-65
2023/08/03 08:52:02;;;;;;;1.15;1.00;;;20.90;1.00;;;;;;5134232;28;20073;-66
2023/08/03 08:54:34;;;;;;;2.90;1.20;;;20.70;1.00;;;;;;5095033;29;20058;-68
2023/08/03 08:57:11;;;;;;;0.85;0.85;;;20.50;1.00;;;;;;5102932;29;20031;-67
2023/08/03 09:00:06;;;;;;;1.27;1.00;;;20.30;1.00;;;;;;5093479;29;20035;-66
2023/08/03 09:02:43;;;;;;;0.77;0.77;;;20.10;1.00;;;;;;5092610;28;20043;-66
2023/08/03 09:05:24;;;;;;;0.85;0.80;;;20.00;1.00;;;;;;5097264;28;20051;-65
2023/08/03 09:08:11;;;;;;;1.50;0.90;;;20.10;1.00;;;;;;5092974;29;20039;-67
2023/08/03 09:11:01;;;;;;;3.65;1.15;;;20.30;1.00;;;;;;5101709;29;20035;-66
2023/08/03 09:13:36;;;;;;;1.20;0.93;;;20.20;1.00;;;;;;5084994;28;20043;-68
2023/08/03 09:16:23;;;;;;;1.75;1.00;;;20.10;99.90;;;;;;5080370;29;20039;-68
2023/08/03 09:18:57;;;;;;;1.63;1.13;;;20.20;99.90;;;;;;5090822;29;20039;-67
2023/08/03 09:21:32;;;;;;;2.60;0.80;;;20.30;99.90;;;;;;5085054;29;20051;-68
2023/08/03 09:24:22;;;;;;;1.30;1.20;;;20.40;99.90;;;;;;5104598;29;20047;-68
2023/08/03 09:26:53;;;;;;;1.70;1.23;;;20.50;1.00;;;;;;5114428;29;20045;-68
2023/08/03 09:29:32;;;;;;;1.90;1.00;;;20.40;1.00;;;;;;5078206;28;20066;-67
2023/08/03 09:32:09;;;;;;;1.55;0.90;;;20.40;1.00;;;;;;5086973;28;20046;-69
2023/08/03 09:34:46;;;;;;;1.88;0.80;;;20.40;1.00;;;;;;5096979;28;20042;-67
2023/08/03 09:37:17;;;;;;;1.00;0.93;;;20.40;99.90;;;;;;5096385;29;20055;-65
2023/08/03 09:39:56;;;;;;;1.10;0.65;;;20.50;99.90;;;;;;5114021;28;20047;-68
2023/08/03 09:42:33;;;;;;;2.63;1.10;;;20.70;99.90;;;;;;5081698;28;20474;-67
2023/08/03 09:45:07;;;;;;;1.15;1.05;;;21.00;1.00;;;;;;5094236;28;20328;-68
2023/08/03 09:47:44;;;;;;;2.22;1.00;;;21.10;1.00;;;;;;5074489;28;20040;-67
2023/08/03 09:50:18;;;;;;;1.35;0.95;;;21.10;99.90;;;;;;5057404;28;20264;-67
2023/08/03 09:52:59;;;;;;;1.02;0.93;;;21.10;1.00;;;;;;5089854;28;20035;-67
2023/08/03 09:55:40;;;;;;;1.85;0.93;;;21.10;1.00;;;;;;5097499;29;20273;-66
2023/08/03 09:58:19;;;;;;;2.13;1.25;;;21.20;99.90;;;;;;5114121;28;20055;-69
2023/08/03 10:00:55;;;;;;;0.80;0.80;;;21.30;99.90;;;;;;5090320;28;20047;-66
2023/08/03 10:03:32;;;;;;;1.17;0.73;;;21.10;1.00;;;;;;5079199;28;20058;-67
2023/08/03 10:06:12;;;;;;;2.55;1.17;;;20.90;1.00;;;;;;5077841;29;20588;-67
2023/08/03 10:08:55;;;;;;;2.47;0.80;;;20.60;1.00;;;;;;5097659;28;20215;-66
2023/08/03 10:11:52;;;;;;;1.98;0.80;;;20.40;1.00;;;;;;5112706;29;20039;-68
2023/08/03 10:14:36;;;;;;;1.70;0.70;;;20.10;1.00;;;;;;5102162;28;20051;-66
2023/08/03 10:17:18;;;;;;;1.02;0.80;;;20.00;1.00;;;;;;5091823;28;20039;-65
2023/08/03 10:19:56;;;;;;;1.55;1.00;;;19.90;99.90;;;;;;5078451;28;20414;-65
2023/08/03 10:22:28;;;;;;;1.38;1.00;;;19.80;99.90;;;;;;5092435;28;20062;-74
2023/08/03 10:25:19;;;;;;;2.28;1.33;;;19.70;99.90;;;;;;5093958;28;20127;-71
2023/08/03 10:28:46;;;;;;;2.58;1.23;;;19.00;1.00;;;;;;5091768;29;20231;-70
2023/08/03 10:31:22;;;;;;;0.85;0.82;;;18.60;99.90;;;;;;5130382;28;20038;-71
2023/08/03 10:33:56;;;;;;;1.15;0.90;;;18.40;1.00;;;;;;5117888;28;20449;-72
2023/08/03 10:36:27;;;;;;;1.77;1.00;;;18.20;1.00;;;;;;5105748;28;20046;-71
2023/08/03 10:39:18;;;;;;;1.23;1.00;;;18.10;1.00;;;;;;5132220;28;20069;-72
2023/08/03 10:41:55;;;;;;;2.35;1.38;;;18.00;1.00;;;;;;5124221;28;20046;-70
2023/08/03 10:44:27;;;;;;;1.15;0.90;;;18.00;1.00;;;;;;5100490;28;20046;-70
2023/08/03 10:47:03;;;;;;;3.97;1.42;;;18.00;1.00;;;;;;5103995;28;20317;-70
2023/08/03 10:49:59;;;;;;;1.80;1.27;;;18.00;1.00;;;;;;5083877;28;20074;-71
2023/08/03 10:52:33;;;;;;;1.48;1.08;;;18.00;1.00;;;;;;5120422;28;20305;-70
2023/08/03 10:55:26;;;;;;;1.73;1.08;;;18.10;26.60;;;;;;5117437;28;20054;-70
2023/08/03 10:58:02;;;;;;;1.63;0.90;;;18.30;1.00;;;;;;5115339;28;20339;-70
2023/08/03 11:00:36;;;;;;;1.83;1.25;;;18.40;1.00;;;;;;5087387;28;20044;-69
2023/08/03 11:03:12;;;;;;;1.15;1.05;;;18.60;1.00;;;;;;5088419;28;20255;-70
2023/08/03 11:05:54;;;;;;;1.17;1.00;;;18.60;1.00;;;;;;5116648;28;20038;-70
2023/08/03 11:08:29;;;;;;;1.15;0.90;;;18.70;1.00;;;;;;5087710;28;20328;-70
2023/08/03 11:11:03;;;;;;;2.38;1.20;;;18.80;1.00;;;;;;5080709;29;20236;-70
2023/08/03 11:13:42;;;;;;;1.20;0.93;;;18.80;99.90;;;;;;5069929;28;20360;-70
2023/08/03 11:16:20;;;;;;;0.82;0.82;;;18.90;1.00;;;;;;5089410;29;20073;-69
2023/08/03 11:18:51;;;;;;;0.70;0.70;;;19.10;1.00;;;;;;5084998;29;20277;-69
2023/08/03 11:21:23;;;;;;;0.90;0.90;;;19.10;1.00;;;;;;5091250;29;20404;-69
2023/08/03 11:23:57;;;;;;;2.22;0.80;;;19.20;99.90;;;;;;5097387;28;20058;-69
2023/08/03 11:26:29;;;;;;;2.53;1.20;;;19.20;1.00;;;;;;5080935;29;20053;-69
2023/08/03 11:29:03;;;;;;;3.20;1.00;;;19.30;1.00;;;;;;5114481;29;20539;-69
2023/08/03 11:31:35;;;;;;;1.08;0.82;;;19.40;99.90;;;;;;5085601;28;20363;-68
2023/08/03 11:34:11;;;;;;;2.05;1.38;;;19.50;1.00;;;;;;5091963;28;20040;-69
2023/08/03 11:36:48;;;;;;;1.55;1.00;;;19.50;99.90;;;;;;5075528;29;20050;-68
2023/08/03 11:39:20;;;;;;;2.10;1.33;;;19.40;99.90;;;;;;5139692;28;20049;-68
2023/08/03 11:41:54;;;;;;;2.35;1.23;;;19.20;1.00;;;;;;5077444;29;20073;-69
2023/08/03 11:44:30;;;;;;;0.90;0.90;;;19.00;1.00;;;;;;5129223;28;20074;-69
2023/08/03 11:47:08;;;;;;;1.65;1.00;;;19.00;1.00;;;;;;5089644;28;20482;-69
2023/08/03 11:49:44;;;;;;;1.35;0.95;;;19.00;1.00;;;;;;5086523;28;20035;-68
2023/08/03 11:52:21;;;;;;;1.15;1.05;;;19.30;1.00;;;;;;5088384;28;20164;-68
2023/08/03 11:54:54;;;;;;;1.27;0.90;;;19.50;1.00;;;;;;5088603;28;20055;-69
2023/08/03 12:00:21;;;;;;;0.98;0.90;;;19.60;99.90;;;;;;5087435;28;20448;-68
2023/08/03 12:02:58;;;;;;;0.88;0.88;;;19.50;99.90;;;;;;5086213;29;20052;-67
2023/08/03 12:05:48;;;;;;;1.90;0.98;;;19.50;99.90;;;;;;5089216;28;20053;-68
2023/08/03 12:08:19;;;;;;;1.10;1.00;;;19.70;1.00;;;;;;5059150;28;20189;-69
2023/08/03 12:11:08;;;;;;;1.58;0.80;;;19.80;1.00;;;;;;5111002;28;20052;-70
2023/08/03 12:13:43;;;;;;;2.95;1.23;;;19.70;99.90;;;;;;5068598;28;20337;-68
2023/08/03 12:16:20;;;;;;;1.15;1.05;;;19.70;1.00;;;;;;5095132;29;20047;-68
2023/08/03 12:18:52;;;;;;;1.52;0.98;;;19.70;99.90;;;;;;5098530;29;20049;-68
2023/08/03 12:21:26;;;;;;;1.85;1.05;;;19.70;99.90;;;;;;5139778;28;20042;-66
2023/08/03 12:24:00;;;;;;;1.83;1.00;;;19.80;99.90;;;;;;5072411;28;20348;-66
2023/08/03 12:26:34;;;;;;;1.15;0.80;;;19.80;99.90;;;;;;5093788;29;20050;-69
2023/08/03 12:29:09;;;;;;;0.77;0.70;;;20.00;99.90;;;;;;5086101;28;20047;-69
2023/08/03 12:31:41;;;;;;;1.13;0.98;;;20.20;99.90;;;;;;5082948;28;20142;-67
2023/08/03 12:34:16;;;;;;;1.02;1.00;;;20.30;99.90;;;;;;5112772;29;20343;-70
2023/08/03 12:36:50;;;;;;;1.38;0.93;;;20.40;21.30;;;;;;5108885;29;20601;-68
2023/08/03 12:39:24;;;;;;;;;;;20.50;1.00;;;;;;5080523;28;20056;-69
2023/08/03 12:41:58;;;;;;;1.85;0.90;;;20.50;1.00;;;;;;5102733;29;20131;-68
2023/08/03 12:44:29;;;;;;;2.88;1.75;;;20.70;1.00;;;;;;5071741;29;20052;-69
2023/08/03 12:47:01;;;;;;;3.03;0.98;;;20.80;1.00;;;;;;5091664;29;20275;-70
2023/08/03 12:49:36;;;;;;;1.90;0.95;;;20.80;1.00;;;;;;5099607;28;20035;-70
2023/08/03 12:52:08;;;;;;;1.45;1.10;;;21.00;1.00;;;;;;5114972;29;20035;-70
2023/08/03 12:54:42;;;;;;;1.38;1.27;;;21.00;1.00;;;;;;5080956;28;20042;-68
2023/08/03 12:57:16;;;;;;;1.67;0.82;;;21.00;99.90;;;;;;5082167;28;20042;-69
2023/08/03 12:59:49;;;;;;;1.55;1.05;;;21.00;99.90;;;;;;5097202;28;20046;-68
2023/08/03 13:02:23;;;;;;;0.90;0.90;;;21.00;99.90;;;;;;5075610;29;20049;-68
2023/08/03 13:04:57;;;;;;;0.90;0.85;;;21.00;1.00;;;;;;5078152;29;20267;-68
2023/08/03 13:07:31;;;;;;;1.33;1.23;;;21.10;99.90;;;;;;5064077;28;20043;-68
2023/08/03 13:10:03;;;;;;;1.13;1.02;;;21.20;60.50;;;;;;5062805;29;20035;-68
2023/08/03 13:12:35;;;;;;;1.10;1.00;;;21.10;1.00;;;;;;5076059;28;20039;-67
2023/08/03 13:15:13;;;;;;;1.13;1.00;;;20.90;1.00;;;;;;5112183;29;20035;-68
2023/08/03 13:17:46;;;;;;;1.10;0.75;;;21.00;99.90;;;;;;5098766;29;20323;-69
2023/08/03 13:20:18;;;;;;;1.20;1.10;;;21.20;99.90;;;;;;5096877;28;20035;-68
2023/08/03 13:22:49;;;;;;;0.75;0.75;;;21.50;1.00;;;;;;5077542;28;20634;-68
2023/08/03 13:25:24;;;;;;;1.50;0.80;;;21.90;1.00;;;;;;5109752;29;20338;-67
2023/08/03 13:27:56;;;;;;;0.80;0.80;;;22.10;1.00;;;;;;5095984;29;20347;-67
2023/08/03 13:30:27;;;;;;;2.15;1.00;;;22.20;99.90;;;;;;5092192;29;20046;-68
2023/08/03 13:32:59;;;;;;;2.05;1.00;;;22.10;1.00;;;;;;5087749;28;20055;-67
2023/08/03 13:35:34;;;;;;;0.98;0.98;;;22.00;99.90;;;;;;5088667;28;20296;-68
2023/08/03 13:38:05;;;;;;;0.90;0.80;;;21.70;1.00;;;;;;5065270;28;20051;-67
2023/08/03 13:40:37;;;;;;;1.67;1.00;;;21.60;1.00;;;;;;5114106;29;20035;-68